Time;durP1;ratioP1;P1;durP2;ratioP2;P2;SDS_P1;SDS_P2;PMS_P1;PMS_P2;Temp;Humidity;BMP_temperature;BMP_pressure;BME280_temperature;BME280_humidity;BME280_pressure;Samples;Min_cycle;Max_cycle;Signal;HPM_P1;HPM_P2
2023/12/28 00:02:51;;;;;;;4.45;2.38;;;;;;;;;;8222135;28;22290;-59
2023/12/28 00:06:51;;;;;;;3.35;2.30;;;;;;;;;;8254298;28;20025;-58
2023/12/28 00:10:51;;;;;;;3.65;2.50;;;;;;;;;;8258979;28;20018;-59
2023/12/28 00:14:52;;;;;;;3.53;2.50;;;;;;;;;;8254882;28;20698;-57
2023/12/28 00:18:53;;;;;;;2.50;2.30;;;;;;;;;;8256221;28;20314;-58
2023/12/28 00:22:53;;;;;;;4.90;2.80;;;;;;;;;;8253537;28;20026;-59
2023/12/28 00:26:53;;;;;;;3.25;2.50;;;;;;;;;;8223311;28;20022;-59
2023/12/28 00:30:53;;;;;;;5.68;2.88;;;;;;;;;;8220984;28;20045;-59
2023/12/28 00:34:53;;;;;;;3.10;2.40;;;;;;;;;;8222042;28;20029;-58
2023/12/28 00:38:54;;;;;;;3.08;2.60;;;;;;;;;;8223447;28;20029;-59
2023/12/28 00:42:54;;;;;;;4.27;3.00;;;;;;;;;;8227299;28;20025;-58
2023/12/28 00:46:54;;;;;;;3.92;2.35;;;;;;;;;;8221607;28;20124;-58
2023/12/28 00:50:55;;;;;;;4.53;2.22;;;;;;;;;;8222081;28;20029;-58
2023/12/28 00:54:55;;;;;;;4.95;2.83;;;;;;;;;;8221919;28;20088;-58
2023/12/28 00:58:55;;;;;;;4.20;2.50;;;;;;;;;;8227343;28;20029;-58
2023/12/28 01:02:56;;;;;;;4.50;2.70;;;;;;;;;;8222756;28;20132;-58
2023/12/28 01:06:56;;;;;;;2.53;2.30;;;;;;;;;;8221769;28;20117;-59
2023/12/28 01:10:56;;;;;;;5.13;2.63;;;;;;;;;;8224530;28;20042;-59
2023/12/28 01:14:56;;;;;;;3.95;2.35;;;;;;;;;;8221698;28;20276;-58
2023/12/28 01:18:56;;;;;;;3.95;2.33;;;;;;;;;;8221873;28;20072;-59
2023/12/28 01:22:57;;;;;;;5.63;2.53;;;;;;;;;;8222571;28;20267;-59
2023/12/28 01:26:57;;;;;;;3.97;2.38;;;;;;;;;;8223694;28;20105;-59
2023/12/28 01:30:57;;;;;;;3.73;2.77;;;;;;;;;;8227266;28;20045;-59
2023/12/28 01:34:59;;;;;;;3.35;2.50;;;;;;;;;;8233552;28;20030;-58
2023/12/28 01:38:59;;;;;;;6.43;2.50;;;;;;;;;;8253760;28;20026;-58
2023/12/28 01:42:59;;;;;;;3.77;2.70;;;;;;;;;;8257522;28;20037;-57
2023/12/28 01:47:00;;;;;;;4.70;2.60;;;;;;;;;;8258513;28;20272;-57
2023/12/28 01:51:00;;;;;;;2.42;2.20;;;;;;;;;;8253824;28;20311;-58
2023/12/28 01:55:01;;;;;;;2.85;2.40;;;;;;;;;;8253470;28;20030;-57
2023/12/28 01:59:02;;;;;;;5.97;2.35;;;;;;;;;;8253188;28;20025;-57
2023/12/28 02:03:02;;;;;;;3.10;2.25;;;;;;;;;;8249790;28;20042;-58
2023/12/28 02:07:02;;;;;;;3.35;2.30;;;;;;;;;;8255022;28;20021;-57
2023/12/28 02:11:04;;;;;;;3.07;2.37;;;;;;;;;;8250686;28;20026;-58
2023/12/28 02:15:04;;;;;;;4.70;2.42;;;;;;;;;;8242372;28;20277;-58
2023/12/28 02:19:13;;;;;;;4.20;2.47;;;;;;;;;;8223889;28;21062;-58
2023/12/28 02:23:13;;;;;;;5.15;2.40;;;;;;;;;;8223074;28;20298;-59
2023/12/28 02:27:13;;;;;;;4.63;2.30;;;;;;;;;;8224555;28;20047;-58
2023/12/28 02:31:21;;;;;;;3.13;2.47;;;;;;;;;;8218924;28;20049;-59
2023/12/28 02:35:40;;;;;;;4.97;2.58;;;;;;;;;;8224092;28;20073;-58
2023/12/28 02:39:42;;;;;;;8.73;2.72;;;;;;;;;;8226110;28;20026;-58
2023/12/28 02:43:42;;;;;;;4.13;2.60;;;;;;;;;;8229870;28;20022;-58
2023/12/28 02:47:44;;;;;;;4.07;2.75;;;;;;;;;;8226206;28;20041;-58
2023/12/28 02:51:44;;;;;;;5.38;2.78;;;;;;;;;;8227858;28;20060;-58
2023/12/28 02:55:44;;;;;;;3.78;2.53;;;;;;;;;;8225067;28;20109;-59
2023/12/28 02:59:47;;;;;;;3.28;2.45;;;;;;;;;;8229350;28;20034;-58
2023/12/28 03:03:47;;;;;;;3.80;2.50;;;;;;;;;;8226149;28;20875;-59
2023/12/28 03:07:47;;;;;;;4.63;2.50;;;;;;;;;;8229319;28;20427;-58
2023/12/28 03:11:48;;;;;;;3.28;2.53;;;;;;;;;;8226385;28;20297;-59
2023/12/28 03:15:48;;;;;;;2.53;2.33;;;;;;;;;;8223237;28;20184;-58
2023/12/28 03:19:48;;;;;;;2.80;2.30;;;;;;;;;;8230889;28;20026;-58
2023/12/28 03:23:48;;;;;;;3.33;2.50;;;;;;;;;;8232788;28;20780;-59
2023/12/28 03:27:48;;;;;;;3.57;2.77;;;;;;;;;;8232307;28;20026;-59
2023/12/28 03:31:49;;;;;;;5.38;2.60;;;;;;;;;;8227403;28;20311;-57
2023/12/28 03:35:51;;;;;;;3.63;2.50;;;;;;;;;;8231977;28;20052;-58
2023/12/28 03:39:51;;;;;;;4.45;2.33;;;;;;;;;;8230903;28;20018;-58
2023/12/28 03:43:51;;;;;;;2.93;2.43;;;;;;;;;;8233972;28;20042;-58
2023/12/28 03:47:52;;;;;;;2.88;2.20;;;;;;;;;;8232398;28;20136;-57
2023/12/28 03:51:52;;;;;;;3.47;2.47;;;;;;;;;;8230054;28;20029;-58
2023/12/28 03:55:52;;;;;;;3.28;2.40;;;;;;;;;;8222661;28;20026;-58
2023/12/28 03:59:53;;;;;;;5.32;2.60;;;;;;;;;;8232248;28;20924;-57
2023/12/28 04:03:54;;;;;;;2.75;2.45;;;;;;;;;;8228711;28;20041;-59
2023/12/28 04:07:54;;;;;;;3.47;2.72;;;;;;;;;;8231432;28;20025;-58
2023/12/28 04:11:54;;;;;;;3.42;2.58;;;;;;;;;;8228651;28;20036;-59
2023/12/28 04:15:54;;;;;;;4.60;2.70;;;;;;;;;;8224476;28;20031;-59
2023/12/28 04:19:54;;;;;;;2.87;2.40;;;;;;;;;;8228825;28;20036;-58
2023/12/28 04:23:55;;;;;;;3.53;2.80;;;;;;;;;;8230778;28;20283;-59
2023/12/28 04:27:55;;;;;;;3.55;3.05;;;;;;;;;;8227043;28;20071;-59
2023/12/28 04:31:55;;;;;;;2.88;2.55;;;;;;;;;;8228364;28;20045;-58
2023/12/28 04:35:55;;;;;;;3.45;2.55;;;;;;;;;;8230646;28;20176;-59
2023/12/28 04:39:56;;;;;;;4.80;2.20;;;;;;;;;;8227826;28;20263;-60
2023/12/28 04:43:57;;;;;;;2.22;1.92;;;;;;;;;;8233363;28;20142;-59
2023/12/28 04:47:57;;;;;;;2.13;1.92;;;;;;;;;;8252386;28;20661;-59
2023/12/28 04:52:00;;;;;;;1.95;1.75;;;;;;;;;;8253851;28;20038;-59
2023/12/28 04:56:00;;;;;;;2.97;2.00;;;;;;;;;;8253607;28;20574;-59
2023/12/28 05:00:00;;;;;;;1.80;1.70;;;;;;;;;;8251827;28;20097;-59
2023/12/28 05:04:00;;;;;;;1.90;1.70;;;;;;;;;;8253490;28;20072;-59
2023/12/28 05:08:00;;;;;;;1.55;1.45;;;;;;;;;;8228009;28;20030;-60
2023/12/28 05:12:00;;;;;;;1.65;1.55;;;;;;;;;;8227338;28;20146;-59
2023/12/28 05:16:01;;;;;;;2.63;1.90;;;;;;;;;;8225558;28;20045;-59
2023/12/28 05:20:01;;;;;;;1.50;1.40;;;;;;;;;;8227431;28;20148;-60
2023/12/28 05:24:01;;;;;;;2.67;1.55;;;;;;;;;;8231041;28;20109;-60
2023/12/28 05:28:01;;;;;;;1.92;1.70;;;;;;;;;;8231749;28;20722;-59
2023/12/28 05:32:02;;;;;;;3.27;1.90;;;;;;;;;;8227599;28;20121;-59
2023/12/28 05:36:02;;;;;;;2.47;2.08;;;;;;;;;;8227694;28;20022;-59
2023/12/28 05:40:02;;;;;;;2.20;2.00;;;;;;;;;;8229266;28;20022;-59
2023/12/28 05:44:02;;;;;;;2.73;2.17;;;;;;;;;;8232785;28;20280;-58
2023/12/28 05:48:03;;;;;;;3.45;2.20;;;;;;;;;;8249346;28;20273;-59
2023/12/28 05:52:04;;;;;;;3.50;2.15;;;;;;;;;;8250120;28;20030;-58
2023/12/28 05:56:04;;;;;;;3.75;2.20;;;;;;;;;;8233327;28;20025;-60
2023/12/28 06:00:06;;;;;;;2.45;1.83;;;;;;;;;;8228308;28;20030;-60
2023/12/28 06:04:06;;;;;;;3.55;2.30;;;;;;;;;;8225896;28;20022;-59
2023/12/28 06:08:06;;;;;;;3.33;2.17;;;;;;;;;;8225374;28;20041;-61
2023/12/28 06:12:07;;;;;;;2.28;2.08;;;;;;;;;;8227536;28;20025;-60
2023/12/28 06:16:07;;;;;;;3.20;1.83;;;;;;;;;;8230317;28;20038;-60
2023/12/28 06:20:08;;;;;;;2.65;1.92;;;;;;;;;;8225088;28;20146;-59
2023/12/28 06:24:08;;;;;;;2.00;1.80;;;;;;;;;;8230329;28;20026;-59
2023/12/28 06:28:08;;;;;;;3.70;2.30;;;;;;;;;;8232335;28;20500;-59
2023/12/28 06:32:09;;;;;;;2.88;1.80;;;;;;;;;;8231277;28;20103;-59
2023/12/28 06:36:09;;;;;;;2.83;2.03;;;;;;;;;;8230979;28;20022;-59
2023/12/28 06:40:10;;;;;;;3.13;2.30;;;;;;;;;;8232113;28;20028;-62
2023/12/28 06:44:13;;;;;;;3.60;2.30;;;;;;;;;;8235865;28;20046;-60
2023/12/28 06:48:13;;;;;;;4.38;2.40;;;;;;;;;;8230879;28;20029;-59
2023/12/28 06:52:14;;;;;;;4.20;2.20;;;;;;;;;;8229375;28;20092;-60
2023/12/28 06:56:15;;;;;;;6.05;2.65;;;;;;;;;;8230143;28;20108;-60
2023/12/28 07:00:15;;;;;;;4.63;2.40;;;;;;;;;;8227418;28;20893;-59
2023/12/28 07:04:15;;;;;;;3.50;2.78;;;;;;;;;;8232264;28;20904;-60
2023/12/28 07:08:15;;;;;;;5.35;4.35;;;;;;;;;;8229384;28;20058;-60
2023/12/28 07:12:16;;;;;;;3.00;2.70;;;;;;;;;;8226728;28;20026;-60
2023/12/28 07:16:16;;;;;;;3.17;2.50;;;;;;;;;;8229453;28;20122;-60
2023/12/28 07:20:16;;;;;;;4.13;2.75;;;;;;;;;;8227175;28;20331;-60
2023/12/28 07:24:16;;;;;;;4.50;3.00;;;;;;;;;;8229257;28;20025;-60
2023/12/28 07:28:16;;;;;;;4.40;2.80;;;;;;;;;;8229221;28;20752;-60
2023/12/28 07:32:17;;;;;;;4.22;2.58;;;;;;;;;;8225487;28;20038;-60
2023/12/28 07:36:17;;;;;;;4.35;3.33;;;;;;;;;;8229634;28;20037;-59
2023/12/28 07:40:17;;;;;;;6.60;3.88;;;;;;;;;;8227958;28;20069;-59
2023/12/28 07:44:17;;;;;;;4.82;2.55;;;;;;;;;;8231450;28;20141;-58
2023/12/28 07:48:17;;;;;;;4.95;3.00;;;;;;;;;;8230557;28;20463;-57
2023/12/28 07:52:18;;;;;;;4.32;3.00;;;;;;;;;;8226008;28;20895;-58
2023/12/28 07:56:18;;;;;;;7.68;2.80;;;;;;;;;;8226952;28;20032;-58
2023/12/28 08:00:19;;;;;;;3.03;2.70;;;;;;;;;;8226106;28;20042;-59
2023/12/28 08:04:19;;;;;;;7.05;3.10;;;;;;;;;;8225175;28;20036;-58
2023/12/28 08:08:19;;;;;;;5.22;3.17;;;;;;;;;;8228899;28;20022;-58
2023/12/28 08:12:21;;;;;;;13.25;5.72;;;;;;;;;;8225096;28;20025;-58
2023/12/28 08:16:21;;;;;;;4.43;3.00;;;;;;;;;;8242136;28;20076;-59
2023/12/28 08:20:21;;;;;;;3.58;2.60;;;;;;;;;;8263958;28;20025;-58
2023/12/28 08:24:21;;;;;;;2.65;2.20;;;;;;;;;;8248324;28;20121;-59
2023/12/28 08:28:23;;;;;;;2.90;2.50;;;;;;;;;;8226502;28;20041;-59
2023/12/28 08:32:23;;;;;;;5.22;2.20;;;;;;;;;;8226950;28;20345;-59
2023/12/28 08:36:23;;;;;;;3.03;2.30;;;;;;;;;;8226991;28;20054;-58
2023/12/28 08:40:23;;;;;;;3.90;2.27;;;;;;;;;;8224754;28;20029;-58
2023/12/28 08:44:23;;;;;;;7.75;2.78;;;;;;;;;;8223970;28;20098;-60
2023/12/28 08:48:24;;;;;;;4.85;2.70;;;;;;;;;;8225947;28;20112;-59
2023/12/28 08:52:26;;;;;;;2.80;2.08;;;;;;;;;;8222796;28;20029;-59
2023/12/28 08:56:26;;;;;;;3.25;2.00;;;;;;;;;;8227226;28;20021;-59
2023/12/28 09:00:26;;;;;;;6.00;2.28;;;;;;;;;;8226933;28;20038;-58
2023/12/28 09:04:26;;;;;;;7.50;2.38;;;;;;;;;;8220119;28;21379;-59
2023/12/28 09:08:27;;;;;;;4.20;1.98;;;;;;;;;;8226853;28;20144;-59
2023/12/28 09:12:27;;;;;;;6.18;2.65;;;;;;;;;;8225556;28;20731;-58
2023/12/28 09:16:28;;;;;;;3.95;2.05;;;;;;;;;;8221554;28;20037;-59
2023/12/28 09:20:28;;;;;;;3.88;2.30;;;;;;;;;;8222674;28;22214;-59
2023/12/28 09:24:28;;;;;;;5.32;2.15;;;;;;;;;;8224061;28;21218;-58
2023/12/28 09:28:28;;;;;;;5.18;2.85;;;;;;;;;;8215006;28;20041;-58
2023/12/28 09:32:29;;;;;;;4.13;2.17;;;;;;;;;;8215883;28;23277;-59
2023/12/28 09:36:29;;;;;;;3.40;2.17;;;;;;;;;;8219820;28;20511;-58
2023/12/28 09:40:29;;;;;;;9.00;2.47;;;;;;;;;;8217686;28;20371;-59
2023/12/28 09:44:30;;;;;;;5.13;2.40;;;;;;;;;;8217103;28;20023;-60
2023/12/28 09:48:31;;;;;;;3.08;2.08;;;;;;;;;;8223604;28;20045;-59
2023/12/28 09:52:31;;;;;;;6.68;3.13;;;;;;;;;;8221576;28;20033;-60
2023/12/28 09:56:32;;;;;;;6.90;2.40;;;;;;;;;;8222974;28;20026;-60
2023/12/28 10:00:32;;;;;;;4.93;2.90;;;;;;;;;;8219318;28;20277;-60
2023/12/28 10:04:32;;;;;;;4.73;2.70;;;;;;;;;;8227871;28;20036;-59
2023/12/28 10:08:44;;;;;;;5.55;2.88;;;;;;;;;;8260477;28;20300;-58
2023/12/28 10:12:45;;;;;;;6.30;3.50;;;;;;;;;;8259570;28;20303;-59
2023/12/28 10:16:46;;;;;;;4.70;2.88;;;;;;;;;;8252290;28;20747;-59
2023/12/28 10:20:53;;;;;;;8.20;4.10;;;;;;;;;;8258178;28;20048;-59
2023/12/28 10:24:55;;;;;;;3.75;2.63;;;;;;;;;;8252286;28;20030;-60
2023/12/28 10:29:00;;;;;;;7.05;2.70;;;;;;;;;;8253137;28;20467;-59
2023/12/28 10:33:00;;;;;;;4.80;2.13;;;;;;;;;;8254590;28;20091;-59
2023/12/28 10:37:01;;;;;;;2.97;1.88;;;;;;;;;;8230896;28;20113;-59
2023/12/28 10:41:08;;;;;;;4.93;2.10;;;;;;;;;;8218866;28;20095;-59
2023/12/28 10:45:10;;;;;;;3.97;1.80;;;;;;;;;;8222772;28;20038;-60
2023/12/28 10:49:15;;;;;;;5.80;2.30;;;;;;;;;;8223112;28;20459;-60
2023/12/28 10:53:35;;;;;;;3.45;1.90;;;;;;;;;;8221462;28;20834;-59
2023/12/28 10:57:44;;;;;;;4.90;1.80;;;;;;;;;;8221342;28;20033;-60
2023/12/28 11:01:46;;;;;;;3.90;2.00;;;;;;;;;;8223575;28;20060;-59
2023/12/28 11:05:47;;;;;;;3.00;1.77;;;;;;;;;;8218434;28;20029;-58
2023/12/28 11:09:47;;;;;;;3.85;1.95;;;;;;;;;;8221879;28;20026;-58
2023/12/28 11:13:50;;;;;;;3.92;1.95;;;;;;;;;;8222936;28;20022;-58
2023/12/28 11:17:50;;;;;;;3.28;1.75;;;;;;;;;;8215273;28;20594;-58
2023/12/28 11:21:51;;;;;;;4.05;2.38;;;;;;;;;;8219595;28;20696;-59
2023/12/28 11:25:51;;;;;;;3.13;2.10;;;;;;;;;;8223333;28;20040;-59
2023/12/28 11:29:52;;;;;;;6.20;2.67;;;;;;;;;;8223426;28;20026;-59
2023/12/28 11:33:53;;;;;;;4.25;2.20;;;;;;;;;;8222144;28;20034;-59
2023/12/28 11:37:54;;;;;;;5.43;2.47;;;;;;;;;;8221922;28;20117;-59
2023/12/28 11:42:00;;;;;;;4.47;2.28;;;;;;;;;;8221411;28;20029;-59
2023/12/28 11:46:00;;;;;;;3.40;2.20;;;;;;;;;;8223710;28;20560;-59
2023/12/28 11:50:07;;;;;;;4.80;2.25;;;;;;;;;;8223166;28;20037;-59
2023/12/28 11:54:07;;;;;;;5.88;2.20;;;;;;;;;;8224585;28;20909;-59
2023/12/28 11:58:07;;;;;;;4.05;2.10;;;;;;;;;;8221177;28;20030;-60
2023/12/28 12:02:08;;;;;;;5.30;2.20;;;;;;;;;;8223357;28;20088;-59
2023/12/28 12:06:08;;;;;;;4.63;2.20;;;;;;;;;;8229659;28;20533;-59
2023/12/28 12:10:14;;;;;;;2.97;1.90;;;;;;;;;;8240832;28;20413;-59
2023/12/28 12:14:14;;;;;;;4.15;1.98;;;;;;;;;;8238326;28;20045;-59
2023/12/28 12:18:14;;;;;;;4.88;2.05;;;;;;;;;;8214187;28;20155;-59
2023/12/28 12:22:16;;;;;;;3.13;1.80;;;;;;;;;;8219717;28;20128;-60
2023/12/28 12:26:17;;;;;;;4.45;1.55;;;;;;;;;;8220240;28;20359;-58
2023/12/28 12:30:18;;;;;;;2.30;1.40;;;;;;;;;;8215663;28;20040;-57
2023/12/28 12:34:19;;;;;;;1.77;1.20;;;;;;;;;;8217223;28;20021;-58
2023/12/28 12:38:19;;;;;;;1.15;1.10;;;;;;;;;;8219650;28;20028;-58
2023/12/28 12:42:20;;;;;;;1.35;1.20;;;;;;;;;;8217861;28;20022;-58
2023/12/28 12:46:20;;;;;;;1.38;1.08;;;;;;;;;;8220599;28;20045;-59
2023/12/28 12:50:21;;;;;;;1.77;1.02;;;;;;;;;;8218023;28;20029;-57
2023/12/28 12:54:21;;;;;;;1.10;1.02;;;;;;;;;;8221784;28;20022;-60
2023/12/28 12:58:22;;;;;;;1.37;0.80;;;;;;;;;;8223353;28;20025;-60
2023/12/28 13:02:23;;;;;;;0.75;0.75;;;;;;;;;;8215911;28;20347;-60
2023/12/28 13:06:24;;;;;;;0.82;0.82;;;;;;;;;;8213937;28;20037;-59
2023/12/28 13:10:24;;;;;;;3.03;1.10;;;;;;;;;;8214432;28;20488;-59
2023/12/28 13:14:24;;;;;;;0.70;0.70;;;;;;;;;;8216700;28;20277;-60
2023/12/28 13:18:24;;;;;;;0.82;0.80;;;;;;;;;;8215217;28;20030;-58
2023/12/28 13:22:24;;;;;;;0.80;0.80;;;;;;;;;;8220515;28;20033;-60
2023/12/28 13:26:26;;;;;;;0.93;0.90;;;;;;;;;;8217406;28;20055;-60
2023/12/28 13:30:29;;;;;;;0.70;0.70;;;;;;;;;;8214740;28;20165;-60
2023/12/28 13:34:30;;;;;;;0.70;0.70;;;;;;;;;;8217733;28;21757;-60
2023/12/28 13:38:30;;;;;;;0.80;0.80;;;;;;;;;;8218744;28;22658;-60
2023/12/28 13:42:31;;;;;;;0.93;0.85;;;;;;;;;;8216737;28;20026;-60
2023/12/28 13:46:31;;;;;;;1.75;1.10;;;;;;;;;;8220335;28;22045;-58
2023/12/28 13:50:31;;;;;;;1.55;1.30;;;;;;;;;;8215567;28;20034;-58
2023/12/28 13:54:32;;;;;;;1.73;1.35;;;;;;;;;;8218216;28;20524;-58
2023/12/28 13:58:32;;;;;;;2.65;1.40;;;;;;;;;;8221839;28;20058;-57
2023/12/28 14:02:33;;;;;;;1.85;1.60;;;;;;;;;;8214827;28;20030;-58
2023/12/28 14:06:33;;;;;;;2.20;1.52;;;;;;;;;;8213280;28;20026;-59
2023/12/28 14:10:33;;;;;;;2.10;1.90;;;;;;;;;;8220297;28;20026;-58
2023/12/28 14:14:34;;;;;;;3.70;1.75;;;;;;;;;;8219309;28;20119;-59
2023/12/28 14:18:34;;;;;;;3.20;2.25;;;;;;;;;;8213328;28;20076;-60
2023/12/28 14:22:34;;;;;;;4.55;2.10;;;;;;;;;;8219488;28;20039;-59
2023/12/28 14:26:39;;;;;;;4.25;2.20;;;;;;;;;;8234372;28;20037;-59
2023/12/28 14:30:39;;;;;;;2.60;2.00;;;;;;;;;;8245484;28;20042;-59
2023/12/28 14:34:40;;;;;;;2.78;2.30;;;;;;;;;;8251298;28;20022;-59
2023/12/28 14:38:43;;;;;;;3.05;2.10;;;;;;;;;;8254024;28;20301;-58
2023/12/28 14:42:44;;;;;;;3.10;2.10;;;;;;;;;;8253690;28;20026;-58
2023/12/28 14:46:45;;;;;;;3.03;1.92;;;;;;;;;;8249797;28;20034;-59
2023/12/28 14:50:46;;;;;;;2.75;2.00;;;;;;;;;;8253461;28;20196;-57
2023/12/28 14:54:46;;;;;;;4.68;2.10;;;;;;;;;;8243966;28;20543;-59
2023/12/28 14:58:47;;;;;;;3.25;1.90;;;;;;;;;;8222196;28;20017;-59
2023/12/28 15:02:48;;;;;;;4.55;2.20;;;;;;;;;;8220480;28;20038;-59
2023/12/28 15:06:48;;;;;;;2.27;1.93;;;;;;;;;;8221856;28;20038;-62
2023/12/28 15:10:48;;;;;;;2.47;1.85;;;;;;;;;;8219169;28;20346;-59
2023/12/28 15:14:48;;;;;;;3.83;1.80;;;;;;;;;;8223022;28;20499;-59
2023/12/28 15:18:49;;;;;;;3.03;2.10;;;;;;;;;;8218623;28;20042;-59
2023/12/28 15:22:49;;;;;;;2.80;1.85;;;;;;;;;;8222586;28;20481;-59
2023/12/28 15:26:50;;;;;;;5.97;2.10;;;;;;;;;;8247368;28;20104;-59
2023/12/28 15:30:50;;;;;;;2.80;1.60;;;;;;;;;;8252517;28;20137;-60
2023/12/28 15:34:50;;;;;;;1.70;1.60;;;;;;;;;;8256630;28;20026;-59
2023/12/28 15:38:50;;;;;;;2.97;1.80;;;;;;;;;;8226327;28;20049;-59
2023/12/28 15:42:51;;;;;;;2.33;2.10;;;;;;;;;;8223124;28;20025;-60
2023/12/28 15:46:51;;;;;;;2.77;1.87;;;;;;;;;;8227280;28;20488;-59
2023/12/28 15:50:51;;;;;;;2.30;2.00;;;;;;;;;;8226391;28;20762;-60
2023/12/28 15:54:52;;;;;;;3.47;2.20;;;;;;;;;;8228532;28;20049;-60
2023/12/28 15:58:52;;;;;;;3.97;1.90;;;;;;;;;;8233138;28;20145;-59
2023/12/28 16:02:52;;;;;;;3.83;1.63;;;;;;;;;;8231804;28;20273;-60
2023/12/28 16:06:52;;;;;;;4.03;1.77;;;;;;;;;;8227947;28;20028;-59
2023/12/28 16:10:52;;;;;;;2.40;1.95;;;;;;;;;;8228178;28;20395;-60
2023/12/28 16:14:53;;;;;;;3.10;2.45;;;;;;;;;;8227556;28;20955;-59
2023/12/28 16:18:53;;;;;;;3.10;2.30;;;;;;;;;;8228554;28;20128;-60
2023/12/28 16:22:55;;;;;;;4.45;2.15;;;;;;;;;;8226852;28;20275;-61
2023/12/28 16:26:55;;;;;;;6.43;2.33;;;;;;;;;;8249695;28;20068;-59
2023/12/28 16:30:55;;;;;;;4.00;2.07;;;;;;;;;;8261597;28;20105;-58
2023/12/28 16:34:55;;;;;;;2.55;1.90;;;;;;;;;;8260712;28;20024;-59
2023/12/28 16:38:57;;;;;;;2.17;1.83;;;;;;;;;;8257948;28;20029;-59
2023/12/28 16:42:57;;;;;;;3.58;2.50;;;;;;;;;;8256644;28;20121;-59
2023/12/28 16:46:58;;;;;;;3.83;2.13;;;;;;;;;;8235611;28;20073;-60
2023/12/28 16:51:01;;;;;;;4.47;2.20;;;;;;;;;;8229223;28;21392;-59
2023/12/28 16:55:01;;;;;;;3.92;2.20;;;;;;;;;;8228675;28;20029;-60
2023/12/28 16:59:03;;;;;;;3.93;2.10;;;;;;;;;;8228750;28;20021;-59
2023/12/28 17:03:03;;;;;;;2.60;2.10;;;;;;;;;;8222132;28;20045;-60
2023/12/28 17:07:04;;;;;;;2.47;2.10;;;;;;;;;;8224648;28;20393;-60
2023/12/28 17:11:04;;;;;;;2.95;2.10;;;;;;;;;;8226442;28;20034;-60
2023/12/28 17:15:09;;;;;;;2.55;2.25;;;;;;;;;;8232356;28;20025;-57
2023/12/28 17:19:09;;;;;;;4.45;2.40;;;;;;;;;;8227975;28;20053;-59
2023/12/28 17:23:16;;;;;;;2.40;1.92;;;;;;;;;;8226201;28;20085;-61
2023/12/28 17:27:19;;;;;;;3.90;2.00;;;;;;;;;;8228154;28;20018;-59
2023/12/28 17:31:21;;;;;;;2.78;2.05;;;;;;;;;;8224433;28;20042;-59
2023/12/28 17:35:21;;;;;;;3.35;2.00;;;;;;;;;;8232717;28;20018;-60
2023/12/28 17:39:22;;;;;;;4.50;2.40;;;;;;;;;;8229585;28;20019;-60
2023/12/28 17:43:31;;;;;;;3.42;2.55;;;;;;;;;;8231292;28;20280;-60
2023/12/28 17:47:49;;;;;;;4.50;2.80;;;;;;;;;;8225130;28;20034;-59
2023/12/28 17:51:51;;;;;;;5.07;2.72;;;;;;;;;;8228696;28;20112;-58
2023/12/28 17:55:51;;;;;;;3.33;2.40;;;;;;;;;;8228650;28;20022;-59
2023/12/28 17:59:51;;;;;;;2.88;2.30;;;;;;;;;;8228524;28;20544;-59
2023/12/28 18:03:51;;;;;;;3.80;2.28;;;;;;;;;;8229133;28;20042;-59
2023/12/28 18:07:52;;;;;;;2.45;2.00;;;;;;;;;;8231483;28;20105;-59
2023/12/28 18:11:52;;;;;;;2.00;1.80;;;;;;;;;;8237054;28;20026;-57
2023/12/28 18:15:52;;;;;;;2.28;2.08;;;;;;;;;;8237095;28;20037;-58
2023/12/28 18:19:52;;;;;;;2.40;1.90;;;;;;;;;;8231335;28;20029;-58
2023/12/28 18:23:52;;;;;;;2.20;1.85;;;;;;;;;;8231303;28;20037;-58
2023/12/28 18:27:53;;;;;;;2.65;2.00;;;;;;;;;;8257558;28;20036;-58
2023/12/28 18:31:54;;;;;;;1.70;1.60;;;;;;;;;;8262553;28;20128;-57
2023/12/28 18:35:55;;;;;;;1.95;1.80;;;;;;;;;;8260387;28;20022;-59
2023/12/28 18:39:55;;;;;;;2.58;1.73;;;;;;;;;;8233867;28;20136;-58
2023/12/28 18:43:56;;;;;;;1.65;1.50;;;;;;;;;;8233130;28;20128;-59
2023/12/28 18:47:56;;;;;;;2.35;1.52;;;;;;;;;;8254269;28;20030;-59
2023/12/28 18:51:56;;;;;;;1.43;1.33;;;;;;;;;;8265681;28;20029;-58
2023/12/28 18:55:56;;;;;;;1.35;1.27;;;;;;;;;;8259982;28;20635;-58
2023/12/28 18:59:57;;;;;;;1.10;1.10;;;;;;;;;;8235344;28;20430;-58
2023/12/28 19:03:57;;;;;;;1.17;1.10;;;;;;;;;;8232038;28;20184;-58
2023/12/28 19:07:57;;;;;;;0.90;0.90;;;;;;;;;;8235303;28;20032;-57
2023/12/28 19:11:57;;;;;;;0.80;0.80;;;;;;;;;;8234178;28;20514;-58
2023/12/28 19:15:58;;;;;;;0.70;0.70;;;;;;;;;;8233097;28;20041;-58
2023/12/28 19:19:58;;;;;;;0.70;0.70;;;;;;;;;;8227166;28;20037;-57
2023/12/28 19:23:58;;;;;;;0.70;0.70;;;;;;;;;;8230126;28;20061;-58
2023/12/28 19:27:59;;;;;;;0.83;0.83;;;;;;;;;;8234574;28;20045;-58
2023/12/28 19:31:59;;;;;;;0.73;0.73;;;;;;;;;;8234248;28;20046;-58
2023/12/28 19:36:00;;;;;;;0.70;0.70;;;;;;;;;;8231904;28;20480;-62
2023/12/28 19:40:00;;;;;;;0.85;0.65;;;;;;;;;;8232490;28;20029;-58
2023/12/28 19:44:00;;;;;;;0.75;0.75;;;;;;;;;;8233728;28;20119;-58
2023/12/28 19:48:01;;;;;;;0.70;0.70;;;;;;;;;;8232624;28;20080;-58
2023/12/28 19:52:02;;;;;;;0.80;0.80;;;;;;;;;;8233393;28;20021;-58
2023/12/28 19:56:02;;;;;;;0.70;0.70;;;;;;;;;;8230706;28;20713;-59
2023/12/28 20:00:03;;;;;;;0.70;0.70;;;;;;;;;;8232935;28;20029;-59
2023/12/28 20:04:03;;;;;;;0.70;0.70;;;;;;;;;;8233590;28;20038;-59
2023/12/28 20:08:03;;;;;;;0.95;0.90;;;;;;;;;;8229531;28;20037;-58
2023/12/28 20:12:04;;;;;;;0.93;0.90;;;;;;;;;;8225533;28;20033;-58
2023/12/28 20:16:05;;;;;;;0.93;0.93;;;;;;;;;;8226940;28;20049;-58
2023/12/28 20:20:06;;;;;;;0.95;0.95;;;;;;;;;;8222044;28;20033;-58
2023/12/28 20:24:08;;;;;;;1.20;1.10;;;;;;;;;;8225809;28;20032;-58
2023/12/28 20:28:08;;;;;;;1.30;1.20;;;;;;;;;;8225635;28;20021;-58
2023/12/28 20:32:08;;;;;;;1.17;1.10;;;;;;;;;;8222797;28;20042;-57
2023/12/28 20:36:09;;;;;;;1.85;1.30;;;;;;;;;;8229628;28;20033;-58
2023/12/28 20:40:09;;;;;;;1.30;1.20;;;;;;;;;;8226834;28;20117;-59
2023/12/28 20:44:09;;;;;;;1.30;1.20;;;;;;;;;;8228775;28;20136;-59
2023/12/28 20:48:10;;;;;;;1.35;1.30;;;;;;;;;;8253934;28;20080;-59
2023/12/28 20:52:11;;;;;;;1.30;1.20;;;;;;;;;;8260462;28;20030;-59
2023/12/28 20:56:12;;;;;;;2.28;1.40;;;;;;;;;;8263087;28;20038;-59
2023/12/28 21:00:13;;;;;;;2.97;1.60;;;;;;;;;;8259539;28;20728;-59
2023/12/28 21:04:14;;;;;;;1.60;1.50;;;;;;;;;;8262998;28;20017;-59
2023/12/28 21:08:15;;;;;;;2.67;2.03;;;;;;;;;;8228937;28;20048;-59
2023/12/28 21:12:22;;;;;;;2.25;1.80;;;;;;;;;;8228324;28;20142;-59
2023/12/28 21:16:25;;;;;;;1.80;1.70;;;;;;;;;;8225551;28;20044;-60
2023/12/28 21:20:25;;;;;;;3.17;2.30;;;;;;;;;;8225667;28;20029;-60
2023/12/28 21:24:26;;;;;;;4.88;2.30;;;;;;;;;;8225571;28;20026;-60
2023/12/28 21:28:26;;;;;;;3.25;2.42;;;;;;;;;;8230264;28;20505;-59
2023/12/28 21:32:26;;;;;;;2.63;2.42;;;;;;;;;;8225054;28;20052;-60
2023/12/28 21:36:26;;;;;;;3.22;2.08;;;;;;;;;;8231360;28;21184;-59
2023/12/28 21:40:27;;;;;;;2.43;2.23;;;;;;;;;;8259458;28;20421;-59
2023/12/28 21:44:27;;;;;;;2.78;2.13;;;;;;;;;;8261579;28;20367;-58
2023/12/28 21:48:27;;;;;;;2.22;2.03;;;;;;;;;;8256087;28;20042;-59
2023/12/28 21:52:27;;;;;;;2.75;2.28;;;;;;;;;;8260168;28;20934;-59
2023/12/28 21:56:27;;;;;;;3.22;2.30;;;;;;;;;;8246852;28;20030;-57
2023/12/28 22:00:28;;;;;;;3.00;2.08;;;;;;;;;;8233664;28;20045;-57
2023/12/28 22:04:28;;;;;;;2.47;2.28;;;;;;;;;;8229156;28;20140;-59
2023/12/28 22:08:28;;;;;;;4.15;2.92;;;;;;;;;;8224775;28;20156;-58
2023/12/28 22:12:28;;;;;;;2.90;2.60;;;;;;;;;;8227440;28;20035;-58
2023/12/28 22:16:28;;;;;;;3.97;2.40;;;;;;;;;;8227103;28;20104;-58
2023/12/28 22:20:29;;;;;;;3.55;3.22;;;;;;;;;;8221871;28;20022;-58
2023/12/28 22:24:29;;;;;;;3.05;2.70;;;;;;;;;;8222088;28;20147;-58
2023/12/28 22:28:29;;;;;;;4.47;2.83;;;;;;;;;;8223644;28;21152;-59
2023/12/28 22:32:30;;;;;;;3.20;2.67;;;;;;;;;;8226594;28;20490;-60
2023/12/28 22:36:30;;;;;;;3.83;3.08;;;;;;;;;;8226610;28;22172;-59
2023/12/28 22:40:32;;;;;;;4.28;2.80;;;;;;;;;;8225537;28;20053;-59
2023/12/28 22:44:32;;;;;;;3.42;2.60;;;;;;;;;;8228189;28;20022;-60
2023/12/28 22:48:32;;;;;;;5.27;2.80;;;;;;;;;;8227211;28;20120;-58
2023/12/28 22:52:32;;;;;;;4.10;2.63;;;;;;;;;;8223428;28;20033;-57
2023/12/28 22:56:33;;;;;;;6.80;2.57;;;;;;;;;;8227216;28;20025;-58
2023/12/28 23:00:34;;;;;;;2.70;2.50;;;;;;;;;;8223780;28;20273;-58
2023/12/28 23:04:34;;;;;;;2.60;2.40;;;;;;;;;;8224412;28;20064;-58
2023/12/28 23:08:35;;;;;;;2.75;2.10;;;;;;;;;;8227046;28;20025;-58
2023/12/28 23:12:35;;;;;;;3.10;2.08;;;;;;;;;;8226891;28;20022;-58
2023/12/28 23:16:36;;;;;;;3.28;2.42;;;;;;;;;;8227374;28;20022;-58
2023/12/28 23:20:36;;;;;;;2.47;2.28;;;;;;;;;;8227092;28;20030;-59
2023/12/28 23:24:40;;;;;;;6.85;2.50;;;;;;;;;;8219729;28;20041;-58
2023/12/28 23:28:40;;;;;;;3.45;2.20;;;;;;;;;;8222394;28;20025;-58
2023/12/28 23:32:40;;;;;;;2.95;2.20;;;;;;;;;;8227932;28;20052;-58
2023/12/28 23:36:41;;;;;;;3.38;2.33;;;;;;;;;;8230056;28;20718;-57
2023/12/28 23:40:41;;;;;;;2.83;2.47;;;;;;;;;;8225312;28;20833;-57
2023/12/28 23:44:41;;;;;;;3.17;2.20;;;;;;;;;;8222246;28;20118;-57
2023/12/28 23:48:44;;;;;;;3.03;2.35;;;;;;;;;;8224358;28;20046;-58
2023/12/28 23:52:44;;;;;;;3.85;2.72;;;;;;;;;;8223681;28;20021;-58
2023/12/28 23:56:44;;;;;;;2.63;2.40;;;;;;;;;;8236371;28;20042;-58
